Аэропорт: Днепропетровск. Днепропетровск

ICAO: UKDD

METAR:
2020-10-19 22:00:00
UKDD 192200Z 02003MPS CAVOK 05/03 Q1024 R26/090070 NOSIG
METAR:
2020-10-19 17:03:00
TAF UKDD 191703Z 1918/2018 29003MPS 9999 BKN018 TEMPO 1920/2006 2100 BR BKN011 BECMG 2007/2009 31006G12MPS